sensor_id;sensor_type;location;lat;lon;timestamp;temperature;humidity
3330;DHT22;1677;49.576;10.990;2023-02-03T00:01:18;6.40;99.90
3330;DHT22;1677;49.576;10.990;2023-02-03T00:03:44;6.40;99.90
3330;DHT22;1677;49.576;10.990;2023-02-03T00:06:09;6.40;99.90
3330;DHT22;1677;49.576;10.990;2023-02-03T00:08:36;6.40;99.90
3330;DHT22;1677;49.576;10.990;2023-02-03T00:11:03;6.30;99.90
3330;DHT22;1677;49.576;10.990;2023-02-03T00:13:28;6.30;99.90
3330;DHT22;1677;49.576;10.990;2023-02-03T00:15:54;6.30;99.90
3330;DHT22;1677;49.576;10.990;2023-02-03T00:18:20;6.40;99.90
3330;DHT22;1677;49.576;10.990;2023-02-03T00:20:45;6.40;99.90
3330;DHT22;1677;49.576;10.990;2023-02-03T00:23:11;6.40;99.90
3330;DHT22;1677;49.576;10.990;2023-02-03T00:25:38;6.40;99.90
3330;DHT22;1677;49.576;10.990;2023-02-03T00:28:03;6.40;99.90
3330;DHT22;1677;49.576;10.990;2023-02-03T00:30:30;6.40;99.90
3330;DHT22;1677;49.576;10.990;2023-02-03T00:32:55;6.40;99.90
3330;DHT22;1677;49.576;10.990;2023-02-03T00:35:21;6.40;99.90
3330;DHT22;1677;49.576;10.990;2023-02-03T00:37:54;6.30;99.90
3330;DHT22;1677;49.576;10.990;2023-02-03T00:40:21;6.20;99.90
3330;DHT22;1677;49.576;10.990;2023-02-03T00:42:47;6.30;99.90
3330;DHT22;1677;49.576;10.990;2023-02-03T00:45:12;6.30;99.90
3330;DHT22;1677;49.576;10.990;2023-02-03T00:47:38;6.40;99.90
3330;DHT22;1677;49.576;10.990;2023-02-03T00:50:05;6.40;99.90
3330;DHT22;1677;49.576;10.990;2023-02-03T00:52:31;6.30;99.90
3330;DHT22;1677;49.576;10.990;2023-02-03T00:54:56;6.30;99.90
3330;DHT22;1677;49.576;10.990;2023-02-03T00:57:22;6.30;99.90
3330;DHT22;1677;49.576;10.990;2023-02-03T00:59:47;6.30;99.90
3330;DHT22;1677;49.576;10.990;2023-02-03T01:02:13;6.30;99.90
3330;DHT22;1677;49.576;10.990;2023-02-03T01:04:39;6.30;99.90
3330;DHT22;1677;49.576;10.990;2023-02-03T01:07:04;6.40;99.90
3330;DHT22;1677;49.576;10.990;2023-02-03T01:09:34;6.50;99.90
3330;DHT22;1677;49.576;10.990;2023-02-03T01:12:00;6.70;99.90
3330;DHT22;1677;49.576;10.990;2023-02-03T01:14:26;6.90;99.90
3330;DHT22;1677;49.576;10.990;2023-02-03T01:16:51;7.00;99.90
3330;DHT22;1677;49.576;10.990;2023-02-03T01:19:17;7.00;99.90
3330;DHT22;1677;49.576;10.990;2023-02-03T01:21:43;6.80;99.90
3330;DHT22;1677;49.576;10.990;2023-02-03T01:24:08;6.70;99.90
3330;DHT22;1677;49.576;10.990;2023-02-03T01:26:34;6.60;99.90
3330;DHT22;1677;49.576;10.990;2023-02-03T01:29:00;6.60;99.90
3330;DHT22;1677;49.576;10.990;2023-02-03T01:31:37;6.60;99.90
3330;DHT22;1677;49.576;10.990;2023-02-03T01:34:09;6.50;99.90
3330;DHT22;1677;49.576;10.990;2023-02-03T01:36:35;6.50;99.90
3330;DHT22;1677;49.576;10.990;2023-02-03T01:39:01;6.60;99.90
3330;DHT22;1677;49.576;10.990;2023-02-03T01:41:37;6.50;99.90
3330;DHT22;1677;49.576;10.990;2023-02-03T01:49:36;6.40;99.90
3330;DHT22;1677;49.576;10.990;2023-02-03T01:52:03;6.50;99.90
3330;DHT22;1677;49.576;10.990;2023-02-03T01:54:31;6.40;99.90
3330;DHT22;1677;49.576;10.990;2023-02-03T01:57:02;6.50;99.90
3330;DHT22;1677;49.576;10.990;2023-02-03T01:59:30;6.40;99.90
3330;DHT22;1677;49.576;10.990;2023-02-03T02:01:58;6.40;99.90
3330;DHT22;1677;49.576;10.990;2023-02-03T02:04:33;6.40;99.90
3330;DHT22;1677;49.576;10.990;2023-02-03T02:07:01;6.40;99.90
3330;DHT22;1677;49.576;10.990;2023-02-03T02:09:28;6.40;99.90
3330;DHT22;1677;49.576;10.990;2023-02-03T02:11:53;6.40;99.90
3330;DHT22;1677;49.576;10.990;2023-02-03T02:14:19;6.40;99.90
3330;DHT22;1677;49.576;10.990;2023-02-03T02:16:47;6.40;99.90
3330;DHT22;1677;49.576;10.990;2023-02-03T02:22:05;6.40;99.90
3330;DHT22;1677;49.576;10.990;2023-02-03T02:27:25;6.50;99.90
3330;DHT22;1677;49.576;10.990;2023-02-03T02:32:49;6.60;99.90
3330;DHT22;1677;49.576;10.990;2023-02-03T02:35:31;6.50;99.90
3330;DHT22;1677;49.576;10.990;2023-02-03T02:38:12;6.50;99.90
3330;DHT22;1677;49.576;10.990;2023-02-03T02:40:53;6.50;99.90
3330;DHT22;1677;49.576;10.990;2023-02-03T02:46:22;6.40;99.90
3330;DHT22;1677;49.576;10.990;2023-02-03T02:51:34;6.50;99.90
3330;DHT22;1677;49.576;10.990;2023-02-03T02:54:04;6.50;99.90
3330;DHT22;1677;49.576;10.990;2023-02-03T02:56:33;6.40;99.90
3330;DHT22;1677;49.576;10.990;2023-02-03T02:59:02;6.40;99.90
3330;DHT22;1677;49.576;10.990;2023-02-03T03:01:29;6.60;99.90
3330;DHT22;1677;49.576;10.990;2023-02-03T03:03:56;6.60;99.90
3330;DHT22;1677;49.576;10.990;2023-02-03T03:06:31;6.60;99.90
3330;DHT22;1677;49.576;10.990;2023-02-03T03:09:00;6.60;99.90
3330;DHT22;1677;49.576;10.990;2023-02-03T03:11:30;6.50;99.90
3330;DHT22;1677;49.576;10.990;2023-02-03T03:13:57;6.50;99.90
3330;DHT22;1677;49.576;10.990;2023-02-03T03:16:26;6.50;99.90
3330;DHT22;1677;49.576;10.990;2023-02-03T03:18:59;6.50;99.90
3330;DHT22;1677;49.576;10.990;2023-02-03T03:21:31;6.50;99.90
3330;DHT22;1677;49.576;10.990;2023-02-03T03:24:02;6.50;99.90
3330;DHT22;1677;49.576;10.990;2023-02-03T03:26:43;6.50;99.90
3330;DHT22;1677;49.576;10.990;2023-02-03T03:29:19;6.60;99.90
3330;DHT22;1677;49.576;10.990;2023-02-03T03:31:47;6.50;99.90
3330;DHT22;1677;49.576;10.990;2023-02-03T03:34:13;6.50;99.90
3330;DHT22;1677;49.576;10.990;2023-02-03T03:36:47;6.50;99.90
3330;DHT22;1677;49.576;10.990;2023-02-03T03:39:23;6.60;99.90
3330;DHT22;1677;49.576;10.990;2023-02-03T03:44:26;6.60;99.90
3330;DHT22;1677;49.576;10.990;2023-02-03T03:47:01;6.60;99.90
3330;DHT22;1677;49.576;10.990;2023-02-03T03:49:30;6.60;99.90
3330;DHT22;1677;49.576;10.990;2023-02-03T03:52:01;6.70;99.90
3330;DHT22;1677;49.576;10.990;2023-02-03T03:54:30;7.00;99.90
3330;DHT22;1677;49.576;10.990;2023-02-03T03:57:00;7.30;99.90
3330;DHT22;1677;49.576;10.990;2023-02-03T03:59:30;7.50;99.90
3330;DHT22;1677;49.576;10.990;2023-02-03T04:01:58;7.50;99.90
3330;DHT22;1677;49.576;10.990;2023-02-03T04:04:29;7.30;99.90
3330;DHT22;1677;49.576;10.990;2023-02-03T04:06:56;7.30;99.90
3330;DHT22;1677;49.576;10.990;2023-02-03T04:09:21;7.20;99.90
3330;DHT22;1677;49.576;10.990;2023-02-03T04:11:47;7.10;99.90
3330;DHT22;1677;49.576;10.990;2023-02-03T04:14:25;7.00;99.90
3330;DHT22;1677;49.576;10.990;2023-02-03T04:16:51;6.90;99.90
3330;DHT22;1677;49.576;10.990;2023-02-03T04:19:16;6.70;99.90
3330;DHT22;1677;49.576;10.990;2023-02-03T04:21:42;6.70;99.90
3330;DHT22;1677;49.576;10.990;2023-02-03T04:24:07;6.60;99.90
3330;DHT22;1677;49.576;10.990;2023-02-03T04:26:33;6.50;99.90
3330;DHT22;1677;49.576;10.990;2023-02-03T04:28:59;6.70;99.90
3330;DHT22;1677;49.576;10.990;2023-02-03T04:31:24;6.60;99.90
3330;DHT22;1677;49.576;10.990;2023-02-03T04:33:50;6.60;99.90
3330;DHT22;1677;49.576;10.990;2023-02-03T04:36:16;6.60;99.90
3330;DHT22;1677;49.576;10.990;2023-02-03T04:38:41;6.60;99.90
3330;DHT22;1677;49.576;10.990;2023-02-03T04:41:07;6.50;99.90
3330;DHT22;1677;49.576;10.990;2023-02-03T04:43:32;6.60;99.90
3330;DHT22;1677;49.576;10.990;2023-02-03T04:45:59;6.60;99.90
3330;DHT22;1677;49.576;10.990;2023-02-03T04:48:25;6.50;99.90
3330;DHT22;1677;49.576;10.990;2023-02-03T04:50:51;6.40;99.90
3330;DHT22;1677;49.576;10.990;2023-02-03T04:53:17;6.50;99.90
3330;DHT22;1677;49.576;10.990;2023-02-03T04:55:46;6.50;99.90
3330;DHT22;1677;49.576;10.990;2023-02-03T04:58:12;6.50;99.90
3330;DHT22;1677;49.576;10.990;2023-02-03T05:00:38;6.60;99.90
3330;DHT22;1677;49.576;10.990;2023-02-03T05:03:03;6.70;99.90
3330;DHT22;1677;49.576;10.990;2023-02-03T05:05:29;6.70;99.90
3330;DHT22;1677;49.576;10.990;2023-02-03T05:07:54;6.60;99.90
3330;DHT22;1677;49.576;10.990;2023-02-03T05:10:20;6.50;99.90
3330;DHT22;1677;49.576;10.990;2023-02-03T05:12:46;6.70;99.90
3330;DHT22;1677;49.576;10.990;2023-02-03T05:15:11;6.60;99.90
3330;DHT22;1677;49.576;10.990;2023-02-03T05:17:37;6.70;99.90
3330;DHT22;1677;49.576;10.990;2023-02-03T05:20:05;6.60;99.90
3330;DHT22;1677;49.576;10.990;2023-02-03T05:22:30;6.70;99.90
3330;DHT22;1677;49.576;10.990;2023-02-03T05:24:56;6.60;99.90
3330;DHT22;1677;49.576;10.990;2023-02-03T05:27:21;6.60;99.90
3330;DHT22;1677;49.576;10.990;2023-02-03T05:29:47;6.60;99.90
3330;DHT22;1677;49.576;10.990;2023-02-03T05:32:13;6.60;99.90
3330;DHT22;1677;49.576;10.990;2023-02-03T05:34:38;6.50;99.90
3330;DHT22;1677;49.576;10.990;2023-02-03T05:37:04;6.70;99.90
3330;DHT22;1677;49.576;10.990;2023-02-03T05:39:29;6.60;99.90
3330;DHT22;1677;49.576;10.990;2023-02-03T05:41:55;6.70;99.90
3330;DHT22;1677;49.576;10.990;2023-02-03T05:44:25;6.70;99.90
3330;DHT22;1677;49.576;10.990;2023-02-03T05:46:52;6.60;99.90
3330;DHT22;1677;49.576;10.990;2023-02-03T05:49:18;6.60;99.90
3330;DHT22;1677;49.576;10.990;2023-02-03T05:51:45;6.50;99.90
3330;DHT22;1677;49.576;10.990;2023-02-03T05:54:11;6.60;99.90
3330;DHT22;1677;49.576;10.990;2023-02-03T05:56:37;6.50;99.90
3330;DHT22;1677;49.576;10.990;2023-02-03T05:59:03;6.60;99.90
3330;DHT22;1677;49.576;10.990;2023-02-03T06:01:30;6.60;99.90
3330;DHT22;1677;49.576;10.990;2023-02-03T06:03:55;6.90;99.90
3330;DHT22;1677;49.576;10.990;2023-02-03T06:06:21;6.90;99.90
3330;DHT22;1677;49.576;10.990;2023-02-03T06:08:47;7.10;99.90
3330;DHT22;1677;49.576;10.990;2023-02-03T06:11:13;7.20;99.90
3330;DHT22;1677;49.576;10.990;2023-02-03T06:13:38;7.10;99.90
3330;DHT22;1677;49.576;10.990;2023-02-03T06:16:04;6.90;99.90
3330;DHT22;1677;49.576;10.990;2023-02-03T06:18:30;6.90;99.90
3330;DHT22;1677;49.576;10.990;2023-02-03T06:20:56;6.70;99.90
3330;DHT22;1677;49.576;10.990;2023-02-03T06:23:21;6.70;99.90
3330;DHT22;1677;49.576;10.990;2023-02-03T06:25:48;6.70;99.90
3330;DHT22;1677;49.576;10.990;2023-02-03T06:28:14;6.70;99.90
3330;DHT22;1677;49.576;10.990;2023-02-03T06:30:40;6.60;99.90
3330;DHT22;1677;49.576;10.990;2023-02-03T06:33:06;6.50;99.90
3330;DHT22;1677;49.576;10.990;2023-02-03T06:35:31;6.50;99.90
3330;DHT22;1677;49.576;10.990;2023-02-03T06:37:57;6.50;99.90
3330;DHT22;1677;49.576;10.990;2023-02-03T06:40:23;6.60;99.90
3330;DHT22;1677;49.576;10.990;2023-02-03T06:42:48;6.50;99.90
3330;DHT22;1677;49.576;10.990;2023-02-03T06:45:15;6.60;99.90
3330;DHT22;1677;49.576;10.990;2023-02-03T06:47:43;6.50;99.90
3330;DHT22;1677;49.576;10.990;2023-02-03T06:50:11;6.50;99.90
3330;DHT22;1677;49.576;10.990;2023-02-03T06:52:37;6.50;99.90
3330;DHT22;1677;49.576;10.990;2023-02-03T06:55:03;6.40;99.90
3330;DHT22;1677;49.576;10.990;2023-02-03T06:57:29;6.40;99.90
3330;DHT22;1677;49.576;10.990;2023-02-03T06:59:55;6.60;99.90
3330;DHT22;1677;49.576;10.990;2023-02-03T07:02:20;6.50;99.90
3330;DHT22;1677;49.576;10.990;2023-02-03T07:04:46;6.50;99.90
3330;DHT22;1677;49.576;10.990;2023-02-03T07:07:12;6.60;99.90
3330;DHT22;1677;49.576;10.990;2023-02-03T07:09:38;6.70;99.90
3330;DHT22;1677;49.576;10.990;2023-02-03T07:12:05;6.60;99.90
3330;DHT22;1677;49.576;10.990;2023-02-03T07:14:30;6.50;99.90
3330;DHT22;1677;49.576;10.990;2023-02-03T07:16:56;6.50;99.90
3330;DHT22;1677;49.576;10.990;2023-02-03T07:19:22;6.60;99.90
3330;DHT22;1677;49.576;10.990;2023-02-03T07:21:47;6.60;99.90
3330;DHT22;1677;49.576;10.990;2023-02-03T07:24:13;6.70;99.90
3330;DHT22;1677;49.576;10.990;2023-02-03T07:26:39;6.60;99.90
3330;DHT22;1677;49.576;10.990;2023-02-03T07:29:05;6.60;99.90
3330;DHT22;1677;49.576;10.990;2023-02-03T07:31:30;6.70;99.90
3330;DHT22;1677;49.576;10.990;2023-02-03T07:33:56;6.80;99.90
3330;DHT22;1677;49.576;10.990;2023-02-03T07:36:21;6.70;99.90
3330;DHT22;1677;49.576;10.990;2023-02-03T07:38:48;6.70;99.90
3330;DHT22;1677;49.576;10.990;2023-02-03T07:41:14;6.70;99.90
3330;DHT22;1677;49.576;10.990;2023-02-03T07:43:39;6.70;99.90
3330;DHT22;1677;49.576;10.990;2023-02-03T07:46:05;6.80;99.90
3330;DHT22;1677;49.576;10.990;2023-02-03T07:48:31;6.80;99.90
3330;DHT22;1677;49.576;10.990;2023-02-03T07:50:56;6.80;99.90
3330;DHT22;1677;49.576;10.990;2023-02-03T07:53:22;6.80;99.90
3330;DHT22;1677;49.576;10.990;2023-02-03T07:55:47;6.90;99.90
3330;DHT22;1677;49.576;10.990;2023-02-03T07:58:13;7.10;99.90
3330;DHT22;1677;49.576;10.990;2023-02-03T08:00:39;7.10;99.90
3330;DHT22;1677;49.576;10.990;2023-02-03T08:03:05;7.10;99.90
3330;DHT22;1677;49.576;10.990;2023-02-03T08:05:30;7.10;99.90
3330;DHT22;1677;49.576;10.990;2023-02-03T08:07:56;6.90;99.90
3330;DHT22;1677;49.576;10.990;2023-02-03T08:10:23;6.90;99.90
3330;DHT22;1677;49.576;10.990;2023-02-03T08:12:52;7.00;99.90
3330;DHT22;1677;49.576;10.990;2023-02-03T08:15:18;7.10;99.90
3330;DHT22;1677;49.576;10.990;2023-02-03T08:17:43;7.40;99.90
3330;DHT22;1677;49.576;10.990;2023-02-03T08:20:10;7.40;99.90
3330;DHT22;1677;49.576;10.990;2023-02-03T08:22:35;7.40;99.90
3330;DHT22;1677;49.576;10.990;2023-02-03T08:25:01;7.50;99.90
3330;DHT22;1677;49.576;10.990;2023-02-03T08:27:26;7.50;99.90
3330;DHT22;1677;49.576;10.990;2023-02-03T08:29:52;7.40;99.90
3330;DHT22;1677;49.576;10.990;2023-02-03T08:32:20;7.30;99.90
3330;DHT22;1677;49.576;10.990;2023-02-03T08:34:47;7.20;99.90
3330;DHT22;1677;49.576;10.990;2023-02-03T08:37:14;7.20;99.90
3330;DHT22;1677;49.576;10.990;2023-02-03T08:39:40;7.30;99.90
3330;DHT22;1677;49.576;10.990;2023-02-03T08:42:06;7.20;99.90
3330;DHT22;1677;49.576;10.990;2023-02-03T08:44:32;7.20;99.90
3330;DHT22;1677;49.576;10.990;2023-02-03T08:46:58;7.10;99.90
3330;DHT22;1677;49.576;10.990;2023-02-03T08:49:26;7.20;99.90
3330;DHT22;1677;49.576;10.990;2023-02-03T08:51:52;7.20;99.90
3330;DHT22;1677;49.576;10.990;2023-02-03T08:54:18;7.10;99.90
3330;DHT22;1677;49.576;10.990;2023-02-03T08:56:44;7.10;99.90
3330;DHT22;1677;49.576;10.990;2023-02-03T08:59:10;7.10;99.90
3330;DHT22;1677;49.576;10.990;2023-02-03T09:01:36;7.00;99.90
3330;DHT22;1677;49.576;10.990;2023-02-03T09:04:02;7.00;99.90
3330;DHT22;1677;49.576;10.990;2023-02-03T09:06:29;7.10;99.90
3330;DHT22;1677;49.576;10.990;2023-02-03T09:08:55;7.00;99.90
3330;DHT22;1677;49.576;10.990;2023-02-03T09:11:20;7.00;99.90
3330;DHT22;1677;49.576;10.990;2023-02-03T09:13:46;7.10;99.90
3330;DHT22;1677;49.576;10.990;2023-02-03T09:16:14;7.00;99.90
3330;DHT22;1677;49.576;10.990;2023-02-03T09:18:41;6.90;99.90
3330;DHT22;1677;49.576;10.990;2023-02-03T09:21:09;7.10;99.90
3330;DHT22;1677;49.576;10.990;2023-02-03T09:23:39;7.10;99.90
3330;DHT22;1677;49.576;10.990;2023-02-03T09:26:08;6.90;99.90
3330;DHT22;1677;49.576;10.990;2023-02-03T09:28:34;7.00;99.90
3330;DHT22;1677;49.576;10.990;2023-02-03T09:31:08;7.00;99.90
3330;DHT22;1677;49.576;10.990;2023-02-03T09:33:34;7.20;99.90
3330;DHT22;1677;49.576;10.990;2023-02-03T09:36:01;7.20;99.90
3330;DHT22;1677;49.576;10.990;2023-02-03T09:38:28;7.20;99.90
3330;DHT22;1677;49.576;10.990;2023-02-03T09:41:11;7.20;99.90
3330;DHT22;1677;49.576;10.990;2023-02-03T09:46:43;7.30;99.90
3330;DHT22;1677;49.576;10.990;2023-02-03T09:49:37;7.30;99.90
3330;DHT22;1677;49.576;10.990;2023-02-03T09:52:14;7.20;99.90
3330;DHT22;1677;49.576;10.990;2023-02-03T09:55:04;7.30;99.90
3330;DHT22;1677;49.576;10.990;2023-02-03T09:57:39;7.30;99.90
3330;DHT22;1677;49.576;10.990;2023-02-03T10:00:26;7.40;99.90
3330;DHT22;1677;49.576;10.990;2023-02-03T10:08:15;7.50;99.90
3330;DHT22;1677;49.576;10.990;2023-02-03T10:10:56;7.60;99.90
3330;DHT22;1677;49.576;10.990;2023-02-03T10:16:57;7.90;99.90
3330;DHT22;1677;49.576;10.990;2023-02-03T10:19:32;8.00;99.90
3330;DHT22;1677;49.576;10.990;2023-02-03T10:22:02;8.10;99.90
3330;DHT22;1677;49.576;10.990;2023-02-03T10:27:36;8.00;99.90
3330;DHT22;1677;49.576;10.990;2023-02-03T10:30:09;7.90;99.90
3330;DHT22;1677;49.576;10.990;2023-02-03T10:32:42;7.90;99.90
3330;DHT22;1677;49.576;10.990;2023-02-03T10:35:12;7.90;99.90
3330;DHT22;1677;49.576;10.990;2023-02-03T10:37:44;7.70;99.90
3330;DHT22;1677;49.576;10.990;2023-02-03T10:40:15;7.70;99.90
3330;DHT22;1677;49.576;10.990;2023-02-03T10:42:42;7.80;99.90
3330;DHT22;1677;49.576;10.990;2023-02-03T10:45:28;7.80;99.90
3330;DHT22;1677;49.576;10.990;2023-02-03T10:47:58;7.80;99.90
3330;DHT22;1677;49.576;10.990;2023-02-03T10:50:26;7.90;99.90
3330;DHT22;1677;49.576;10.990;2023-02-03T10:53:18;8.00;99.90
3330;DHT22;1677;49.576;10.990;2023-02-03T10:56:16;8.00;99.90
3330;DHT22;1677;49.576;10.990;2023-02-03T10:58:53;8.10;99.90
3330;DHT22;1677;49.576;10.990;2023-02-03T11:01:23;8.10;99.90
3330;DHT22;1677;49.576;10.990;2023-02-03T11:04:01;8.20;99.90
3330;DHT22;1677;49.576;10.990;2023-02-03T11:07:02;8.30;99.90
3330;DHT22;1677;49.576;10.990;2023-02-03T11:12:18;8.20;99.90
3330;DHT22;1677;49.576;10.990;2023-02-03T11:17:22;8.20;99.90
3330;DHT22;1677;49.576;10.990;2023-02-03T11:19:50;8.20;99.90
3330;DHT22;1677;49.576;10.990;2023-02-03T11:24:55;8.20;99.90
3330;DHT22;1677;49.576;10.990;2023-02-03T11:27:22;8.20;99.90
3330;DHT22;1677;49.576;10.990;2023-02-03T11:29:53;8.10;99.90
3330;DHT22;1677;49.576;10.990;2023-02-03T11:32:35;8.10;99.90
3330;DHT22;1677;49.576;10.990;2023-02-03T11:35:23;8.00;99.90
3330;DHT22;1677;49.576;10.990;2023-02-03T11:37:55;8.10;99.90
3330;DHT22;1677;49.576;10.990;2023-02-03T11:40:32;8.10;99.90
3330;DHT22;1677;49.576;10.990;2023-02-03T11:43:15;8.00;99.90
3330;DHT22;1677;49.576;10.990;2023-02-03T11:45:44;8.10;99.90
3330;DHT22;1677;49.576;10.990;2023-02-03T11:48:22;8.30;99.90
3330;DHT22;1677;49.576;10.990;2023-02-03T11:59:10;8.20;99.90
3330;DHT22;1677;49.576;10.990;2023-02-03T12:02:51;8.20;99.90
3330;DHT22;1677;49.576;10.990;2023-02-03T12:13:01;8.10;99.90
3330;DHT22;1677;49.576;10.990;2023-02-03T12:26:41;7.90;99.90
3330;DHT22;1677;49.576;10.990;2023-02-03T12:29:15;7.90;99.90
3330;DHT22;1677;49.576;10.990;2023-02-03T12:34:51;7.90;99.90
3330;DHT22;1677;49.576;10.990;2023-02-03T12:37:23;7.90;99.90
3330;DHT22;1677;49.576;10.990;2023-02-03T12:40:04;7.80;99.90
3330;DHT22;1677;49.576;10.990;2023-02-03T12:45:20;7.90;99.90
3330;DHT22;1677;49.576;10.990;2023-02-03T12:48:06;7.80;99.90
3330;DHT22;1677;49.576;10.990;2023-02-03T12:50:39;8.20;99.90
3330;DHT22;1677;49.576;10.990;2023-02-03T12:53:32;8.10;99.90
3330;DHT22;1677;49.576;10.990;2023-02-03T12:56:26;8.00;99.90
3330;DHT22;1677;49.576;10.990;2023-02-03T12:59:01;8.10;99.90
3330;DHT22;1677;49.576;10.990;2023-02-03T13:01:47;8.00;99.90
3330;DHT22;1677;49.576;10.990;2023-02-03T13:04:32;7.90;99.90
3330;DHT22;1677;49.576;10.990;2023-02-03T13:09:32;7.70;99.90
3330;DHT22;1677;49.576;10.990;2023-02-03T13:12:19;7.80;99.90
3330;DHT22;1677;49.576;10.990;2023-02-03T13:14:50;7.80;99.90
3330;DHT22;1677;49.576;10.990;2023-02-03T13:19:48;8.00;99.90
3330;DHT22;1677;49.576;10.990;2023-02-03T13:22:15;8.30;99.90
3330;DHT22;1677;49.576;10.990;2023-02-03T13:24:52;8.30;99.90
3330;DHT22;1677;49.576;10.990;2023-02-03T13:38:17;7.70;99.90
3330;DHT22;1677;49.576;10.990;2023-02-03T13:43:27;7.60;99.90
3330;DHT22;1677;49.576;10.990;2023-02-03T13:45:53;7.60;99.90
3330;DHT22;1677;49.576;10.990;2023-02-03T13:48:23;7.60;99.90
3330;DHT22;1677;49.576;10.990;2023-02-03T13:51:01;7.50;99.90
3330;DHT22;1677;49.576;10.990;2023-02-03T13:53:34;7.40;99.90
3330;DHT22;1677;49.576;10.990;2023-02-03T13:56:02;7.40;99.90
3330;DHT22;1677;49.576;10.990;2023-02-03T13:58:31;7.50;99.90
3330;DHT22;1677;49.576;10.990;2023-02-03T14:03:45;7.40;99.90
3330;DHT22;1677;49.576;10.990;2023-02-03T14:09:02;7.60;99.90
3330;DHT22;1677;49.576;10.990;2023-02-03T14:16:46;7.80;99.90
3330;DHT22;1677;49.576;10.990;2023-02-03T14:21:51;7.70;99.90
3330;DHT22;1677;49.576;10.990;2023-02-03T14:24:19;7.60;99.90
3330;DHT22;1677;49.576;10.990;2023-02-03T14:26:50;7.70;99.90
3330;DHT22;1677;49.576;10.990;2023-02-03T14:29:43;7.70;99.90
3330;DHT22;1677;49.576;10.990;2023-02-03T14:32:13;7.70;99.90
3330;DHT22;1677;49.576;10.990;2023-02-03T14:34:48;7.60;99.90
3330;DHT22;1677;49.576;10.990;2023-02-03T14:37:26;7.70;99.90
3330;DHT22;1677;49.576;10.990;2023-02-03T14:46:05;7.60;99.90
3330;DHT22;1677;49.576;10.990;2023-02-03T14:48:54;7.60;99.90
3330;DHT22;1677;49.576;10.990;2023-02-03T14:57:28;7.70;99.90
3330;DHT22;1677;49.576;10.990;2023-02-03T15:00:24;8.00;99.90
3330;DHT22;1677;49.576;10.990;2023-02-03T15:03:22;8.10;99.90
3330;DHT22;1677;49.576;10.990;2023-02-03T15:05:52;7.90;99.90
3330;DHT22;1677;49.576;10.990;2023-02-03T15:08:44;7.60;99.90
3330;DHT22;1677;49.576;10.990;2023-02-03T15:13:49;7.60;99.90
3330;DHT22;1677;49.576;10.990;2023-02-03T15:16:18;7.50;99.90
3330;DHT22;1677;49.576;10.990;2023-02-03T15:18:44;7.50;99.90
3330;DHT22;1677;49.576;10.990;2023-02-03T15:21:17;7.60;99.90
3330;DHT22;1677;49.576;10.990;2023-02-03T15:23:44;7.60;99.90
3330;DHT22;1677;49.576;10.990;2023-02-03T15:26:24;7.60;99.90
3330;DHT22;1677;49.576;10.990;2023-02-03T15:28:57;7.50;99.90
3330;DHT22;1677;49.576;10.990;2023-02-03T15:34:01;7.50;99.90
3330;DHT22;1677;49.576;10.990;2023-02-03T15:36:42;7.50;99.90
3330;DHT22;1677;49.576;10.990;2023-02-03T15:41:58;7.50;99.90
3330;DHT22;1677;49.576;10.990;2023-02-03T15:44:30;7.50;99.90
3330;DHT22;1677;49.576;10.990;2023-02-03T15:46:58;7.40;99.90
3330;DHT22;1677;49.576;10.990;2023-02-03T15:49:37;7.40;99.90
3330;DHT22;1677;49.576;10.990;2023-02-03T15:52:18;7.40;99.90
3330;DHT22;1677;49.576;10.990;2023-02-03T15:54:48;7.40;99.90
3330;DHT22;1677;49.576;10.990;2023-02-03T15:57:29;7.50;99.90
3330;DHT22;1677;49.576;10.990;2023-02-03T15:59:57;7.40;99.90
3330;DHT22;1677;49.576;10.990;2023-02-03T16:04:54;7.40;99.90
3330;DHT22;1677;49.576;10.990;2023-02-03T16:07:20;7.30;99.90
3330;DHT22;1677;49.576;10.990;2023-02-03T16:09:46;7.40;99.90
3330;DHT22;1677;49.576;10.990;2023-02-03T16:12:31;7.40;99.90
3330;DHT22;1677;49.576;10.990;2023-02-03T16:14:59;7.30;99.90
3330;DHT22;1677;49.576;10.990;2023-02-03T16:17:35;7.30;99.90
3330;DHT22;1677;49.576;10.990;2023-02-03T16:22:38;7.40;99.90
3330;DHT22;1677;49.576;10.990;2023-02-03T16:25:17;7.40;99.90
3330;DHT22;1677;49.576;10.990;2023-02-03T16:27:44;7.40;99.90
3330;DHT22;1677;49.576;10.990;2023-02-03T16:33:04;7.40;99.90
3330;DHT22;1677;49.576;10.990;2023-02-03T16:35:57;7.50;99.90
3330;DHT22;1677;49.576;10.990;2023-02-03T16:38:46;7.60;99.90
3330;DHT22;1677;49.576;10.990;2023-02-03T16:41:30;7.90;99.90
3330;DHT22;1677;49.576;10.990;2023-02-03T16:44:15;8.20;99.90
3330;DHT22;1677;49.576;10.990;2023-02-03T16:47:00;8.00;99.90
3330;DHT22;1677;49.576;10.990;2023-02-03T16:49:44;7.80;99.90
3330;DHT22;1677;49.576;10.990;2023-02-03T16:52:28;7.70;99.90
3330;DHT22;1677;49.576;10.990;2023-02-03T16:54:54;7.60;99.90
3330;DHT22;1677;49.576;10.990;2023-02-03T16:57:20;7.50;99.90
3330;DHT22;1677;49.576;10.990;2023-02-03T16:59:45;7.60;99.90
3330;DHT22;1677;49.576;10.990;2023-02-03T17:02:11;7.50;99.90
3330;DHT22;1677;49.576;10.990;2023-02-03T17:04:36;7.50;99.90
3330;DHT22;1677;49.576;10.990;2023-02-03T17:07:08;7.60;99.90
3330;DHT22;1677;49.576;10.990;2023-02-03T17:09:34;7.50;99.90
3330;DHT22;1677;49.576;10.990;2023-02-03T17:12:03;7.50;99.90
3330;DHT22;1677;49.576;10.990;2023-02-03T17:14:28;7.50;99.90
3330;DHT22;1677;49.576;10.990;2023-02-03T17:16:54;7.60;99.90
3330;DHT22;1677;49.576;10.990;2023-02-03T17:19:20;7.50;99.90
3330;DHT22;1677;49.576;10.990;2023-02-03T17:21:45;7.50;99.90
3330;DHT22;1677;49.576;10.990;2023-02-03T17:24:12;7.50;99.90
3330;DHT22;1677;49.576;10.990;2023-02-03T17:26:38;7.50;99.90
3330;DHT22;1677;49.576;10.990;2023-02-03T17:29:04;7.50;99.90
3330;DHT22;1677;49.576;10.990;2023-02-03T17:31:30;7.50;99.90
3330;DHT22;1677;49.576;10.990;2023-02-03T17:33:56;7.50;99.90
3330;DHT22;1677;49.576;10.990;2023-02-03T17:36:22;7.60;99.90
3330;DHT22;1677;49.576;10.990;2023-02-03T17:38:50;7.60;99.90
3330;DHT22;1677;49.576;10.990;2023-02-03T17:41:19;7.60;99.90
3330;DHT22;1677;49.576;10.990;2023-02-03T17:43:47;7.70;99.90
3330;DHT22;1677;49.576;10.990;2023-02-03T17:46:15;7.60;99.90
3330;DHT22;1677;49.576;10.990;2023-02-03T17:48:41;7.70;99.90
3330;DHT22;1677;49.576;10.990;2023-02-03T17:51:21;7.60;99.90
3330;DHT22;1677;49.576;10.990;2023-02-03T17:53:50;7.60;99.90
3330;DHT22;1677;49.576;10.990;2023-02-03T17:56:21;7.60;99.90
3330;DHT22;1677;49.576;10.990;2023-02-03T17:58:58;7.60;99.90
3330;DHT22;1677;49.576;10.990;2023-02-03T18:01:24;7.70;99.90
3330;DHT22;1677;49.576;10.990;2023-02-03T18:03:57;7.60;99.90
3330;DHT22;1677;49.576;10.990;2023-02-03T18:06:24;7.70;99.90
3330;DHT22;1677;49.576;10.990;2023-02-03T18:08:50;7.70;99.90
3330;DHT22;1677;49.576;10.990;2023-02-03T18:11:17;7.70;99.90
3330;DHT22;1677;49.576;10.990;2023-02-03T18:13:45;7.70;99.90
3330;DHT22;1677;49.576;10.990;2023-02-03T18:16:19;7.70;99.90
3330;DHT22;1677;49.576;10.990;2023-02-03T18:18:54;7.90;99.90
3330;DHT22;1677;49.576;10.990;2023-02-03T18:21:22;8.00;99.90
3330;DHT22;1677;49.576;10.990;2023-02-03T18:23:48;8.10;99.90
3330;DHT22;1677;49.576;10.990;2023-02-03T18:26:16;8.00;99.90
3330;DHT22;1677;49.576;10.990;2023-02-03T18:28:43;8.00;99.90
3330;DHT22;1677;49.576;10.990;2023-02-03T18:31:14;8.00;99.90
3330;DHT22;1677;49.576;10.990;2023-02-03T18:33:40;8.00;99.90
3330;DHT22;1677;49.576;10.990;2023-02-03T18:36:07;7.90;99.90
3330;DHT22;1677;49.576;10.990;2023-02-03T18:38:34;7.90;99.90